Time;durP1;ratioP1;P1;durP2;ratioP2;P2;SDS_P1;SDS_P2;PMS_P1;PMS_P2;Temp;Humidity;BMP_temperature;BMP_pressure;BME280_temperature;BME280_humidity;BME280_pressure;Samples;Min_cycle;Max_cycle;Signal;HPM_P1;HPM_P2
2022/11/13 00:00:35;;;;;;;8.47;6.03;;;7.60;84.90;;;;;;5002575;28;20475;-66
2022/11/13 00:03:01;;;;;;;7.40;5.63;;;7.60;84.90;;;;;;5030659;28;20454;-66
2022/11/13 00:05:27;;;;;;;10.43;5.27;;;7.60;84.90;;;;;;5013529;28;20570;-66
2022/11/13 00:07:53;;;;;;;9.70;6.43;;;7.60;84.90;;;;;;5014431;28;20467;-66
2022/11/13 00:10:19;;;;;;;11.40;6.43;;;7.60;84.90;;;;;;5034084;28;20192;-66
2022/11/13 00:12:44;;;;;;;9.13;6.33;;;7.60;84.80;;;;;;5014248;28;20209;-66
2022/11/13 00:15:10;;;;;;;6.73;5.87;;;7.60;84.90;;;;;;5020391;28;20222;-66
2022/11/13 00:17:36;;;;;;;10.63;6.83;;;7.60;84.90;;;;;;4996352;28;20198;-66
2022/11/13 00:20:02;;;;;;;9.73;7.60;;;7.60;84.90;;;;;;5029204;28;20317;-66
2022/11/13 00:22:27;;;;;;;9.87;7.47;;;7.60;84.80;;;;;;5028866;28;20196;-66
2022/11/13 00:24:53;;;;;;;12.27;7.13;;;7.60;84.90;;;;;;4992214;28;20435;-66
2022/11/13 00:27:19;;;;;;;7.63;6.20;;;7.60;84.90;;;;;;4996985;28;20227;-66
2022/11/13 00:29:44;;;;;;;8.60;6.40;;;7.60;84.90;;;;;;4993873;28;20207;-66
2022/11/13 00:32:10;;;;;;;7.27;6.13;;;7.60;84.90;;;;;;4997243;28;20662;-66
2022/11/13 00:34:36;;;;;;;7.53;6.03;;;7.60;84.90;;;;;;4998251;28;20236;-66
2022/11/13 00:37:01;;;;;;;8.47;6.10;;;7.60;84.90;;;;;;5010827;28;20200;-66
2022/11/13 00:39:27;;;;;;;7.13;6.13;;;7.60;84.90;;;;;;5013462;28;20219;-66
2022/11/13 00:41:53;;;;;;;7.23;5.37;;;7.60;84.90;;;;;;4997263;28;20227;-66
2022/11/13 00:44:18;;;;;;;8.87;6.80;;;7.60;84.90;;;;;;5015041;28;20250;-66
2022/11/13 00:46:44;;;;;;;7.83;5.90;;;7.60;84.90;;;;;;5013368;28;20191;-66
2022/11/13 00:49:10;;;;;;;10.30;6.17;;;7.60;84.90;;;;;;4996865;28;20191;-66
2022/11/13 00:51:35;;;;;;;8.47;6.00;;;7.60;84.90;;;;;;4996043;28;20196;-66
2022/11/13 00:54:01;;;;;;;7.90;5.83;;;7.60;84.90;;;;;;4996923;28;20195;-66
2022/11/13 00:56:27;;;;;;;16.00;8.40;;;7.60;84.90;;;;;;5000919;28;20192;-66
2022/11/13 00:58:52;;;;;;;15.47;11.33;;;7.50;84.90;;;;;;5001534;28;20230;-66
2022/11/13 01:01:19;;;;;;;17.70;12.47;;;7.50;84.80;;;;;;5013346;28;20238;-66
2022/11/13 01:03:45;;;;;;;24.70;16.00;;;7.50;84.80;;;;;;5029578;28;20655;-66
2022/11/13 01:06:13;;;;;;;19.60;13.33;;;7.50;84.80;;;;;;5013144;28;20449;-66
2022/11/13 01:08:39;;;;;;;19.83;13.47;;;7.50;84.70;;;;;;5014249;28;20188;-66
2022/11/13 01:11:14;;;;;;;16.37;10.83;;;7.50;84.60;;;;;;5012943;28;20545;-66
2022/11/13 01:13:42;;;;;;;16.93;10.43;;;7.40;84.60;;;;;;5020450;28;20441;-66
2022/11/13 01:16:09;;;;;;;13.67;9.77;;;7.40;84.50;;;;;;5012998;28;20466;-66
2022/11/13 01:18:36;;;;;;;12.47;9.37;;;7.40;84.50;;;;;;4997434;28;20487;-66
2022/11/13 01:21:07;;;;;;;10.97;7.57;;;7.30;84.50;;;;;;5012081;28;21045;-66
2022/11/13 01:23:33;;;;;;;11.33;6.80;;;7.30;84.40;;;;;;5012825;28;20465;-66
2022/11/13 01:26:15;;;;;;;10.03;7.23;;;7.30;84.40;;;;;;5013405;28;20437;-66
2022/11/13 01:28:42;;;;;;;9.53;7.23;;;7.20;84.50;;;;;;5006289;28;20433;-66
2022/11/13 01:31:11;;;;;;;9.20;6.10;;;7.20;84.50;;;;;;5013391;28;20644;-66
2022/11/13 01:33:36;;;;;;;8.00;5.80;;;7.10;84.40;;;;;;5010174;28;20439;-66
2022/11/13 01:36:09;;;;;;;8.70;6.57;;;7.00;84.40;;;;;;5002008;28;20447;-66
2022/11/13 01:38:35;;;;;;;8.50;6.00;;;7.00;84.50;;;;;;5012610;28;20274;-66
2022/11/13 01:41:00;;;;;;;8.00;5.73;;;6.90;84.50;;;;;;5033048;28;20605;-66
2022/11/13 01:43:29;;;;;;;8.93;6.90;;;6.80;84.60;;;;;;5013017;28;20192;-66
2022/11/13 01:45:58;;;;;;;10.60;6.90;;;6.80;84.60;;;;;;5034106;28;20217;-66
2022/11/13 01:48:41;;;;;;;8.87;6.43;;;6.70;84.70;;;;;;5029061;28;20441;-66
2022/11/13 01:51:17;;;;;;;9.07;6.43;;;6.70;84.70;;;;;;5012321;28;20477;-66
2022/11/13 01:53:45;;;;;;;6.80;5.60;;;6.60;84.80;;;;;;5012850;28;20441;-66
2022/11/13 01:56:13;;;;;;;7.37;5.97;;;6.60;84.90;;;;;;5013424;28;20442;-66
2022/11/13 01:58:41;;;;;;;8.07;6.27;;;6.50;84.90;;;;;;4995925;28;20482;-66
2022/11/13 02:01:07;;;;;;;10.07;5.97;;;6.50;85.10;;;;;;5010126;28;20473;-66
2022/11/13 02:03:33;;;;;;;7.47;6.00;;;6.40;85.10;;;;;;5013097;28;20533;-66
2022/11/13 02:05:59;;;;;;;5.77;4.87;;;6.40;85.20;;;;;;5012367;28;20554;-66
2022/11/13 02:08:24;;;;;;;8.83;5.53;;;6.30;85.30;;;;;;4996601;28;20195;-66
2022/11/13 02:10:50;;;;;;;8.50;5.40;;;6.30;85.30;;;;;;5013083;28;20192;-66
2022/11/13 02:13:16;;;;;;;8.27;5.90;;;6.30;85.30;;;;;;5012730;28;20202;-66
2022/11/13 02:15:42;;;;;;;6.90;5.47;;;6.20;85.30;;;;;;5000040;28;20198;-66
2022/11/13 02:18:09;;;;;;;6.60;5.10;;;6.20;85.40;;;;;;5014411;28;20263;-66
2022/11/13 02:20:53;;;;;;;9.00;5.87;;;6.10;85.40;;;;;;5004572;28;20473;-66
2022/11/13 02:23:37;;;;;;;6.77;5.03;;;6.10;85.50;;;;;;5016030;28;20458;-66
2022/11/13 02:26:04;;;;;;;7.97;4.80;;;6.00;85.40;;;;;;5032981;28;20898;-66
2022/11/13 02:28:30;;;;;;;6.90;4.70;;;6.00;85.50;;;;;;5016018;28;20438;-66
2022/11/13 02:30:56;;;;;;;8.77;4.80;;;5.90;85.50;;;;;;4999632;28;20493;-66
2022/11/13 02:33:29;;;;;;;6.20;4.73;;;5.90;85.50;;;;;;5001798;28;20230;-66
2022/11/13 02:35:54;;;;;;;6.93;4.80;;;5.80;85.60;;;;;;5031341;28;20191;-66
2022/11/13 02:38:20;;;;;;;4.63;4.20;;;5.80;85.60;;;;;;5001217;28;20461;-66
2022/11/13 02:40:46;;;;;;;6.80;4.90;;;5.70;85.60;;;;;;4997412;28;20267;-66
2022/11/13 02:43:12;;;;;;;7.23;5.60;;;5.70;85.70;;;;;;5015989;28;20197;-66
2022/11/13 02:45:37;;;;;;;7.70;5.03;;;5.60;85.80;;;;;;5015898;28;20200;-66
2022/11/13 02:48:04;;;;;;;6.63;5.23;;;5.60;85.90;;;;;;4999602;28;20669;-66
2022/11/13 02:50:30;;;;;;;5.30;4.57;;;5.60;85.90;;;;;;5032235;28;20195;-66
2022/11/13 02:52:56;;;;;;;7.70;5.40;;;5.50;86.00;;;;;;4999618;28;20455;-66
2022/11/13 02:55:22;;;;;;;5.83;4.43;;;5.50;86.00;;;;;;5006086;28;20457;-66
2022/11/13 02:57:48;;;;;;;8.93;5.50;;;5.40;86.00;;;;;;5015298;28;20199;-66
2022/11/13 03:00:14;;;;;;;10.00;5.40;;;5.40;86.00;;;;;;5044125;28;20485;-66
2022/11/13 03:02:40;;;;;;;6.37;4.77;;;5.40;86.10;;;;;;5013283;28;20240;-66
2022/11/13 03:05:06;;;;;;;6.90;5.53;;;5.30;86.10;;;;;;5016063;28;20493;-66
2022/11/13 03:07:31;;;;;;;8.23;5.57;;;5.30;86.20;;;;;;5015433;28;20199;-66
2022/11/13 03:09:57;;;;;;;7.07;4.97;;;5.30;86.30;;;;;;5014656;28;20203;-65
2022/11/13 03:12:23;;;;;;;7.50;4.80;;;5.30;86.30;;;;;;5028525;28;20214;-65
2022/11/13 03:14:48;;;;;;;6.90;5.30;;;5.20;86.30;;;;;;5014114;28;20222;-65
2022/11/13 03:17:14;;;;;;;6.80;5.50;;;5.20;86.40;;;;;;4998059;28;20664;-65
2022/11/13 03:19:40;;;;;;;6.33;5.30;;;5.10;86.40;;;;;;4995124;28;20243;-65
2022/11/13 03:22:05;;;;;;;8.07;5.47;;;5.10;86.50;;;;;;4997289;28;20196;-65
2022/11/13 03:24:31;;;;;;;7.27;5.47;;;5.10;86.60;;;;;;5007901;28;20282;-65
2022/11/13 03:26:57;;;;;;;9.30;5.73;;;5.00;86.60;;;;;;5031313;28;20271;-65
2022/11/13 03:29:22;;;;;;;6.27;4.40;;;5.00;86.50;;;;;;5009769;28;20225;-65
2022/11/13 03:31:48;;;;;;;8.03;5.70;;;5.00;86.60;;;;;;5000692;28;20199;-65
2022/11/13 03:34:14;;;;;;;7.57;5.83;;;4.90;86.60;;;;;;4998546;28;20249;-65
2022/11/13 03:36:39;;;;;;;7.27;5.03;;;4.90;86.60;;;;;;5015131;28;20196;-65
2022/11/13 03:39:05;;;;;;;6.60;5.37;;;4.80;86.60;;;;;;4997630;28;20195;-66
2022/11/13 03:41:31;;;;;;;7.00;5.63;;;4.80;86.60;;;;;;5015229;28;20198;-65
2022/11/13 03:43:56;;;;;;;7.90;5.37;;;4.80;86.60;;;;;;5002922;28;20195;-65
2022/11/13 03:46:22;;;;;;;6.67;5.20;;;4.70;86.60;;;;;;5015425;28;20191;-65
2022/11/13 03:48:48;;;;;;;7.23;5.77;;;4.70;86.60;;;;;;4997848;28;20196;-65
2022/11/13 03:51:13;;;;;;;7.73;5.43;;;4.60;86.70;;;;;;4998248;28;20217;-65
2022/11/13 03:53:39;;;;;;;8.40;5.87;;;4.60;86.80;;;;;;5014855;28;20214;-65
2022/11/13 03:56:05;;;;;;;7.13;4.90;;;4.60;86.80;;;;;;4997756;28;20192;-65
2022/11/13 03:58:31;;;;;;;8.40;4.93;;;4.60;86.80;;;;;;4998328;28;20207;-65
2022/11/13 04:00:56;;;;;;;6.67;5.27;;;4.50;86.80;;;;;;5030086;28;20211;-65
2022/11/13 04:03:22;;;;;;;10.00;5.47;;;4.50;86.80;;;;;;4997375;28;20180;-65
2022/11/13 04:05:49;;;;;;;7.40;5.70;;;4.50;86.90;;;;;;5013832;28;20188;-65
2022/11/13 04:08:16;;;;;;;7.40;5.63;;;4.50;87.00;;;;;;5004362;28;20211;-65
2022/11/13 04:10:42;;;;;;;8.30;6.40;;;4.40;86.90;;;;;;5013563;28;20434;-65
2022/11/13 04:13:10;;;;;;;8.73;5.60;;;4.40;87.00;;;;;;5010227;28;20443;-65
2022/11/13 04:15:35;;;;;;;8.53;5.80;;;4.40;87.00;;;;;;5013801;28;20749;-65
2022/11/13 04:18:01;;;;;;;9.13;5.67;;;4.40;87.10;;;;;;5013528;28;20536;-65
2022/11/13 04:20:27;;;;;;;6.30;5.23;;;4.30;87.20;;;;;;5030796;28;20219;-65
2022/11/13 04:22:54;;;;;;;6.80;5.60;;;4.40;87.20;;;;;;5013861;28;20223;-65
2022/11/13 04:25:20;;;;;;;6.83;5.03;;;4.30;87.20;;;;;;5034102;28;20278;-65
2022/11/13 04:27:47;;;;;;;6.93;5.03;;;4.30;87.20;;;;;;5030345;28;20509;-65
2022/11/13 04:30:13;;;;;;;7.93;5.90;;;4.30;87.20;;;;;;5038907;28;20192;-66
2022/11/13 04:32:38;;;;;;;6.57;4.93;;;4.30;87.30;;;;;;5013837;28;21004;-65
2022/11/13 04:35:04;;;;;;;5.10;4.07;;;4.30;87.40;;;;;;4998126;28;20242;-65
2022/11/13 04:37:30;;;;;;;6.40;5.17;;;4.30;87.40;;;;;;4997254;28;20192;-65
2022/11/13 04:39:56;;;;;;;10.60;6.03;;;4.30;87.40;;;;;;5013588;28;20496;-65
2022/11/13 04:45:06;;;;;;;8.63;5.90;;;4.20;87.40;;;;;;5012529;28;20261;-65
2022/11/13 04:47:31;;;;;;;6.93;5.40;;;4.20;87.40;;;;;;5013566;28;20535;-65
2022/11/13 04:49:57;;;;;;;6.43;5.17;;;4.10;87.40;;;;;;5000740;28;20536;-65
2022/11/13 04:52:22;;;;;;;8.80;6.10;;;4.10;87.30;;;;;;5012701;28;20278;-65
2022/11/13 04:54:48;;;;;;;7.30;5.50;;;4.10;87.30;;;;;;4996787;28;20290;-65
2022/11/13 04:57:14;;;;;;;6.70;4.80;;;4.10;87.40;;;;;;5013273;28;20228;-65
2022/11/13 04:59:39;;;;;;;7.03;5.37;;;4.10;87.40;;;;;;4996788;28;20214;-65
2022/11/13 05:02:05;;;;;;;7.63;5.40;;;4.10;87.40;;;;;;4996438;28;20194;-65
2022/11/13 05:04:31;;;;;;;6.83;5.27;;;4.00;87.40;;;;;;5013847;28;20183;-65
2022/11/13 05:06:56;;;;;;;5.60;4.47;;;4.00;87.50;;;;;;5010572;28;20203;-65
2022/11/13 05:09:22;;;;;;;8.87;6.13;;;4.00;87.50;;;;;;5013033;28;20229;-65
2022/11/13 05:11:48;;;;;;;7.00;5.97;;;4.00;87.60;;;;;;4996217;28;20227;-65
2022/11/13 05:14:13;;;;;;;7.37;5.30;;;4.00;87.60;;;;;;5010510;28;20241;-65
2022/11/13 05:16:39;;;;;;;7.30;5.93;;;4.00;87.60;;;;;;5030154;28;20281;-65
2022/11/13 05:19:05;;;;;;;7.83;5.40;;;4.00;87.70;;;;;;5001769;28;20251;-65
2022/11/13 05:21:35;;;;;;;5.67;4.93;;;4.00;87.70;;;;;;4997703;28;20200;-66
2022/11/13 05:24:02;;;;;;;8.50;6.90;;;3.90;87.60;;;;;;5009948;28;20439;-65
2022/11/13 05:26:28;;;;;;;8.57;5.93;;;4.00;87.80;;;;;;5021686;28;20465;-65
2022/11/13 05:28:57;;;;;;;8.63;5.83;;;4.00;87.90;;;;;;4996559;28;20511;-65
2022/11/13 05:31:23;;;;;;;6.20;4.83;;;4.00;88.00;;;;;;5029612;28;20291;-65
2022/11/13 05:33:48;;;;;;;7.07;5.27;;;4.10;88.20;;;;;;5009135;28;20522;-65
2022/11/13 05:36:16;;;;;;;8.47;6.03;;;4.20;88.40;;;;;;4996760;28;20199;-65
2022/11/13 05:38:42;;;;;;;10.50;6.80;;;4.30;88.50;;;;;;5012255;28;20624;-63
2022/11/13 05:41:10;;;;;;;12.70;7.00;;;4.30;88.50;;;;;;5000795;28;20492;-63
2022/11/13 05:43:37;;;;;;;9.87;7.20;;;4.40;88.40;;;;;;5029540;28;20434;-64
2022/11/13 05:46:05;;;;;;;12.53;7.73;;;4.50;88.30;;;;;;5010069;28;20440;-64
2022/11/13 05:48:32;;;;;;;8.30;5.90;;;4.60;88.00;;;;;;5013010;28;20767;-63
2022/11/13 05:51:06;;;;;;;9.30;6.97;;;4.60;88.00;;;;;;5013967;28;20423;-63
2022/11/13 05:53:32;;;;;;;11.00;7.40;;;4.70;87.90;;;;;;5017540;28;20425;-63
2022/11/13 05:56:26;;;;;;;10.33;6.80;;;4.80;87.90;;;;;;5001761;28;20447;-63
2022/11/13 05:58:53;;;;;;;8.77;6.73;;;4.80;87.90;;;;;;5009844;28;20449;-63
2022/11/13 06:01:27;;;;;;;10.37;6.77;;;4.90;87.90;;;;;;5017760;28;20512;-63
2022/11/13 06:03:57;;;;;;;11.00;6.60;;;5.00;87.90;;;;;;5033685;28;20430;-63
2022/11/13 06:06:25;;;;;;;8.33;6.27;;;5.00;87.90;;;;;;5016649;28;20439;-63
2022/11/13 06:08:52;;;;;;;8.23;6.57;;;5.10;87.90;;;;;;5000653;28;20484;-64
2022/11/13 06:11:20;;;;;;;11.77;8.53;;;5.10;87.80;;;;;;5033400;28;20480;-64
2022/11/13 06:13:47;;;;;;;10.77;8.27;;;5.20;87.80;;;;;;5017012;28;20944;-64
2022/11/13 06:16:19;;;;;;;10.07;7.17;;;5.30;87.80;;;;;;5032722;28;20465;-64
2022/11/13 06:18:46;;;;;;;9.53;7.37;;;5.30;87.80;;;;;;5032671;28;20504;-63
2022/11/13 06:21:18;;;;;;;13.70;8.80;;;5.30;87.80;;;;;;5033495;28;20522;-64
2022/11/13 06:23:44;;;;;;;14.23;8.90;;;5.30;87.80;;;;;;5015972;28;20437;-64
2022/11/13 06:26:13;;;;;;;13.70;8.93;;;5.40;87.80;;;;;;5033119;28;20427;-64
2022/11/13 06:28:39;;;;;;;13.13;8.97;;;5.50;87.80;;;;;;5031456;28;20443;-63
2022/11/13 06:31:08;;;;;;;10.60;8.43;;;5.50;87.70;;;;;;5015871;28;20461;-63
2022/11/13 06:33:34;;;;;;;12.60;8.97;;;5.60;87.60;;;;;;5015954;28;20426;-64
2022/11/13 06:36:05;;;;;;;12.23;9.07;;;5.60;87.60;;;;;;5016017;28;20944;-64
2022/11/13 06:38:32;;;;;;;11.50;7.63;;;5.60;87.50;;;;;;5015739;28;20454;-64
2022/11/13 06:40:58;;;;;;;12.23;8.83;;;5.70;87.40;;;;;;5016340;28;20470;-64
2022/11/13 06:43:24;;;;;;;10.27;7.80;;;5.70;87.40;;;;;;4999825;28;20565;-64
2022/11/13 06:45:50;;;;;;;12.80;9.00;;;5.80;87.30;;;;;;5016322;28;20194;-64
2022/11/13 06:48:15;;;;;;;10.33;7.67;;;5.80;87.20;;;;;;5009704;28;20192;-64
2022/11/13 06:50:41;;;;;;;11.80;7.37;;;5.80;87.20;;;;;;5032624;28;20204;-64
2022/11/13 06:53:07;;;;;;;8.27;6.43;;;5.80;86.90;;;;;;5016283;28;20202;-64
2022/11/13 06:55:32;;;;;;;9.00;7.17;;;5.90;86.70;;;;;;5006151;28;20208;-63
2022/11/13 06:57:58;;;;;;;9.53;7.33;;;5.90;86.60;;;;;;5008493;28;20196;-64
2022/11/13 07:00:24;;;;;;;9.27;7.40;;;5.90;86.50;;;;;;4997036;28;20319;-64
2022/11/13 07:02:50;;;;;;;10.23;7.33;;;5.90;86.50;;;;;;5015416;28;20215;-63
2022/11/13 07:05:16;;;;;;;9.97;6.37;;;6.00;86.40;;;;;;4998389;28;20192;-64
2022/11/13 07:07:42;;;;;;;10.07;6.93;;;6.00;86.40;;;;;;5001550;28;20525;-64
2022/11/13 07:10:08;;;;;;;7.63;6.40;;;6.10;86.30;;;;;;4998908;28;20510;-64
2022/11/13 07:12:34;;;;;;;8.93;7.03;;;6.10;86.20;;;;;;4999387;28;20219;-64
2022/11/13 07:14:59;;;;;;;10.40;7.30;;;6.10;86.20;;;;;;4998879;28;20482;-64
2022/11/13 07:17:27;;;;;;;8.37;7.37;;;6.20;86.20;;;;;;4999092;28;20653;-64
2022/11/13 07:19:53;;;;;;;10.07;7.20;;;6.20;86.10;;;;;;5016357;28;20235;-64
2022/11/13 07:22:18;;;;;;;9.57;7.47;;;6.30;86.10;;;;;;5015481;28;20468;-65
2022/11/13 07:24:44;;;;;;;10.47;7.37;;;6.30;86.10;;;;;;5015795;28;20261;-65
2022/11/13 07:27:10;;;;;;;11.53;6.93;;;6.30;86.10;;;;;;5019658;28;20223;-65
2022/11/13 07:29:37;;;;;;;9.27;7.10;;;6.40;85.90;;;;;;5014282;28;20203;-64
2022/11/13 07:32:03;;;;;;;8.73;6.57;;;6.50;85.90;;;;;;5000308;28;20234;-64
2022/11/13 07:34:29;;;;;;;10.47;7.67;;;6.50;85.70;;;;;;5016100;28;20439;-64
2022/11/13 07:36:55;;;;;;;8.20;6.53;;;6.60;85.70;;;;;;5016540;28;20443;-63
2022/11/13 07:39:20;;;;;;;9.40;7.57;;;6.60;85.50;;;;;;5029244;28;20199;-63
2022/11/13 07:41:47;;;;;;;9.43;7.53;;;6.70;85.50;;;;;;5002113;28;20196;-64
2022/11/13 07:44:12;;;;;;;9.07;6.80;;;6.80;85.50;;;;;;5016013;28;20223;-64
2022/11/13 07:46:38;;;;;;;11.03;7.73;;;6.80;85.40;;;;;;5008235;28;20533;-64
2022/11/13 07:49:03;;;;;;;10.70;7.90;;;6.90;85.40;;;;;;5014468;28;20198;-64
2022/11/13 07:51:29;;;;;;;9.57;7.27;;;7.00;85.30;;;;;;4996497;28;20201;-64
2022/11/13 07:53:55;;;;;;;11.03;8.57;;;7.00;85.30;;;;;;5006317;28;20203;-63
2022/11/13 07:56:22;;;;;;;8.73;7.17;;;7.10;84.90;;;;;;5015226;28;20286;-64
2022/11/13 07:58:48;;;;;;;9.90;7.87;;;7.10;84.80;;;;;;5010454;28;20200;-64
2022/11/13 08:01:14;;;;;;;12.40;8.33;;;7.20;84.90;;;;;;4996768;28;20479;-64
2022/11/13 08:03:39;;;;;;;19.90;12.53;;;7.30;84.80;;;;;;5008224;28;20445;-64
2022/11/13 08:06:06;;;;;;;19.50;11.60;;;7.30;84.80;;;;;;5014427;28;20204;-64
2022/11/13 08:08:33;;;;;;;15.93;10.50;;;7.30;84.50;;;;;;5015114;28;20192;-65
2022/11/13 08:11:07;;;;;;;15.70;10.13;;;7.30;84.40;;;;;;5013870;28;20431;-66
2022/11/13 08:13:33;;;;;;;13.70;10.03;;;7.40;84.30;;;;;;5038127;28;20462;-66
2022/11/13 08:16:00;;;;;;;16.53;10.87;;;7.40;84.10;;;;;;5031142;28;20807;-66
2022/11/13 08:18:28;;;;;;;16.67;10.83;;;7.40;83.90;;;;;;5013311;28;21052;-64
2022/11/13 08:20:54;;;;;;;16.83;11.47;;;7.40;83.60;;;;;;4997469;28;20489;-65
2022/11/13 08:23:20;;;;;;;16.10;10.77;;;7.40;83.50;;;;;;5013759;28;20438;-65
2022/11/13 08:25:46;;;;;;;15.37;11.17;;;7.40;83.60;;;;;;5013893;28;20195;-66
2022/11/13 08:28:12;;;;;;;20.37;12.03;;;7.40;83.40;;;;;;5037718;28;20250;-65
2022/11/13 08:30:38;;;;;;;18.37;11.93;;;7.40;83.70;;;;;;5029440;28;20191;-65
2022/11/13 08:33:03;;;;;;;18.53;12.53;;;7.50;83.70;;;;;;5000457;28;20207;-65
2022/11/13 08:35:29;;;;;;;23.13;15.60;;;7.50;83.60;;;;;;4997406;28;20207;-65
2022/11/13 08:38:01;;;;;;;17.03;12.13;;;7.50;83.60;;;;;;5013983;28;20306;-65
2022/11/13 08:40:27;;;;;;;18.17;12.73;;;7.60;83.90;;;;;;5026224;28;20211;-65
2022/11/13 08:43:01;;;;;;;18.83;13.43;;;7.70;83.80;;;;;;5019134;28;20437;-63
2022/11/13 08:45:28;;;;;;;14.60;10.80;;;7.80;83.70;;;;;;5012407;28;20179;-64
2022/11/13 08:47:57;;;;;;;16.50;12.10;;;7.80;83.70;;;;;;4995301;28;20490;-63
2022/11/13 08:50:23;;;;;;;15.80;11.50;;;7.80;83.60;;;;;;5029059;28;20472;-63
2022/11/13 08:52:54;;;;;;;19.17;12.20;;;7.80;83.40;;;;;;5019692;28;20442;-65
2022/11/13 08:55:20;;;;;;;15.50;10.97;;;7.70;83.70;;;;;;4994109;28;20339;-65
2022/11/13 08:57:46;;;;;;;15.50;10.63;;;7.70;83.70;;;;;;5014052;28;20525;-65
2022/11/13 09:00:12;;;;;;;16.67;11.03;;;7.80;83.60;;;;;;4997288;28;20610;-66
2022/11/13 09:02:38;;;;;;;17.00;11.17;;;7.80;83.60;;;;;;5011233;28;20198;-66
2022/11/13 09:05:04;;;;;;;17.93;10.30;;;7.80;83.70;;;;;;5019897;28;20430;-66
2022/11/13 09:07:30;;;;;;;17.63;11.13;;;7.80;83.70;;;;;;4995679;28;20196;-66
2022/11/13 09:09:56;;;;;;;17.03;12.50;;;7.80;83.70;;;;;;5012331;28;20477;-66
2022/11/13 09:12:21;;;;;;;20.90;13.27;;;7.90;83.60;;;;;;5013103;28;20246;-65
2022/11/13 09:14:47;;;;;;;23.80;14.20;;;7.90;83.70;;;;;;5007279;28;20205;-65
2022/11/13 09:17:13;;;;;;;21.70;14.17;;;7.90;83.70;;;;;;5008895;28;20199;-64
2022/11/13 09:19:38;;;;;;;14.83;9.87;;;8.00;83.80;;;;;;4998532;28;20339;-64
2022/11/13 09:22:04;;;;;;;16.90;11.47;;;8.00;83.80;;;;;;5007396;28;20199;-64
2022/11/13 09:24:30;;;;;;;21.23;14.27;;;8.10;83.80;;;;;;5029506;28;20188;-64
2022/11/13 09:26:56;;;;;;;17.83;13.57;;;8.10;83.70;;;;;;5026379;28;20291;-64
2022/11/13 09:29:22;;;;;;;21.37;13.77;;;8.10;83.70;;;;;;5012118;28;20206;-65
2022/11/13 09:31:49;;;;;;;22.83;15.50;;;8.20;83.70;;;;;;5005914;28;20274;-64
2022/11/13 09:34:15;;;;;;;22.03;15.50;;;8.20;83.60;;;;;;5013632;28;20434;-65
2022/11/13 09:36:40;;;;;;;19.60;13.43;;;8.30;83.40;;;;;;5012844;28;20423;-64
2022/11/13 09:39:06;;;;;;;18.03;13.20;;;8.30;83.40;;;;;;5013689;28;20191;-64
2022/11/13 09:42:07;;;;;;;20.70;12.83;;;8.40;83.30;;;;;;5028752;28;20219;-65
2022/11/13 09:44:50;;;;;;;18.97;13.50;;;8.50;83.10;;;;;;5011811;28;20198;-63
2022/11/13 09:47:21;;;;;;;22.00;13.50;;;8.50;82.90;;;;;;5013210;28;20437;-63
2022/11/13 09:50:03;;;;;;;20.43;14.70;;;8.60;82.30;;;;;;5026369;28;20493;-63
2022/11/13 09:52:35;;;;;;;21.73;14.23;;;8.60;82.20;;;;;;5026342;28;20445;-63
2022/11/13 09:55:03;;;;;;;17.60;12.27;;;8.70;82.30;;;;;;5009664;28;20442;-63
2022/11/13 09:57:41;;;;;;;17.43;12.00;;;8.80;82.20;;;;;;5011173;28;20443;-63
2022/11/13 10:00:14;;;;;;;19.73;11.60;;;8.80;82.10;;;;;;5013127;28;20518;-63
2022/11/13 10:02:48;;;;;;;14.97;11.90;;;8.90;82.00;;;;;;5029111;28;20478;-63
2022/11/13 10:05:39;;;;;;;19.37;13.03;;;8.90;81.80;;;;;;5012135;28;20449;-63
2022/11/13 10:08:16;;;;;;;20.50;14.13;;;9.00;81.50;;;;;;5005314;28;20505;-62
2022/11/13 10:10:54;;;;;;;19.27;13.63;;;9.00;81.00;;;;;;5028939;28;20442;-62
2022/11/13 10:13:40;;;;;;;17.30;11.97;;;9.10;80.80;;;;;;5013216;28;20441;-63
2022/11/13 10:16:41;;;;;;;16.60;12.73;;;9.20;80.70;;;;;;4992007;28;20485;-63
2022/11/13 10:19:56;;;;;;;15.20;11.30;;;9.20;80.10;;;;;;5008864;28;20485;-63
2022/11/13 10:22:37;;;;;;;15.53;11.90;;;9.30;80.00;;;;;;4999410;28;20432;-63
2022/11/13 10:25:20;;;;;;;15.97;11.07;;;9.40;79.80;;;;;;5012268;28;20465;-63
2022/11/13 10:27:58;;;;;;;13.33;10.03;;;9.50;79.90;;;;;;5024418;28;20449;-63
2022/11/13 10:30:25;;;;;;;24.80;13.33;;;9.50;79.90;;;;;;5025726;28;20210;-61
2022/11/13 10:32:51;;;;;;;14.70;9.57;;;9.60;77.90;;;;;;5022895;28;20427;-63
2022/11/13 10:35:30;;;;;;;16.37;11.67;;;9.70;78.50;;;;;;5005370;28;20286;-63
2022/11/13 10:38:10;;;;;;;17.13;12.83;;;9.70;78.50;;;;;;5013051;28;20254;-61
2022/11/13 10:40:38;;;;;;;18.37;13.07;;;9.80;77.40;;;;;;5013035;28;20468;-61
2022/11/13 10:43:22;;;;;;;16.13;12.17;;;9.90;76.20;;;;;;5014650;28;20255;-61
2022/11/13 10:46:03;;;;;;;14.10;11.57;;;10.00;76.00;;;;;;5023683;28;20423;-61
2022/11/13 10:48:34;;;;;;;16.63;11.80;;;10.10;75.40;;;;;;5032130;28;20202;-61
2022/11/13 10:51:17;;;;;;;12.03;9.37;;;10.20;75.70;;;;;;5012220;28;20434;-62
2022/11/13 10:53:43;;;;;;;18.20;12.67;;;10.30;75.80;;;;;;5014047;28;20461;-62
2022/11/13 10:56:32;;;;;;;15.30;11.43;;;10.30;75.60;;;;;;5015147;28;20230;-62
2022/11/13 10:59:16;;;;;;;13.50;10.67;;;10.50;75.30;;;;;;5036830;28;20192;-62
2022/11/13 11:01:43;;;;;;;13.57;9.73;;;10.60;75.30;;;;;;5030886;28;20227;-62
2022/11/13 11:04:18;;;;;;;16.53;12.70;;;10.70;74.90;;;;;;5015752;28;20200;-62
2022/11/13 11:06:44;;;;;;;15.40;12.20;;;10.90;73.10;;;;;;5007687;28;20195;-62
2022/11/13 11:09:25;;;;;;;18.83;12.77;;;11.00;71.90;;;;;;5014595;28;20204;-62
2022/11/13 11:12:15;;;;;;;16.57;12.40;;;11.10;72.50;;;;;;5015057;28;20635;-62
2022/11/13 11:14:56;;;;;;;19.97;13.03;;;11.20;71.90;;;;;;5014722;28;20179;-62
2022/11/13 11:17:37;;;;;;;19.27;14.23;;;11.30;72.90;;;;;;5022057;28;20246;-62
2022/11/13 11:20:24;;;;;;;15.77;13.60;;;11.40;73.40;;;;;;5030057;28;20228;-62
2022/11/13 11:23:11;;;;;;;14.97;11.67;;;11.60;72.70;;;;;;5010203;28;20247;-63
2022/11/13 11:25:39;;;;;;;16.47;11.50;;;11.70;73.70;;;;;;5028570;28;20199;-63
2022/11/13 11:28:20;;;;;;;16.07;12.83;;;11.80;71.20;;;;;;5031818;28;20266;-62
2022/11/13 11:30:51;;;;;;;18.37;12.07;;;11.80;70.70;;;;;;5030269;28;20202;-62
2022/11/13 11:33:41;;;;;;;11.03;9.07;;;12.00;71.60;;;;;;5014705;28;20191;-63
2022/11/13 11:36:29;;;;;;;16.77;12.13;;;12.00;71.40;;;;;;5036190;28;20223;-63
2022/11/13 11:39:01;;;;;;;13.33;10.93;;;12.20;70.00;;;;;;5011800;28;20192;-63
2022/11/13 11:41:35;;;;;;;13.20;10.60;;;12.30;70.40;;;;;;5031033;28;20223;-63
2022/11/13 11:44:12;;;;;;;12.63;10.17;;;12.40;70.40;;;;;;5014834;28;20191;-62
2022/11/13 11:46:38;;;;;;;12.37;8.80;;;12.50;70.40;;;;;;5002831;28;20274;-63
2022/11/13 11:49:04;;;;;;;12.67;9.33;;;12.60;69.80;;;;;;4999850;28;20277;-63
2022/11/13 11:51:38;;;;;;;11.43;10.07;;;12.70;68.50;;;;;;4997754;28;20202;-63
2022/11/13 11:54:24;;;;;;;14.63;10.53;;;12.80;67.60;;;;;;5011384;28;20199;-63
2022/11/13 11:56:58;;;;;;;17.23;13.47;;;12.80;67.70;;;;;;5026741;28;20215;-63
2022/11/13 11:59:56;;;;;;;17.67;13.70;;;12.90;66.80;;;;;;5013988;28;20199;-63
2022/11/13 12:02:37;;;;;;;14.57;11.10;;;12.90;66.40;;;;;;5030767;28;20222;-64
2022/11/13 12:05:14;;;;;;;16.00;12.53;;;13.00;67.00;;;;;;5010564;28;20976;-63
2022/11/13 12:07:58;;;;;;;19.90;13.80;;;13.20;66.70;;;;;;5024555;28;20238;-62
2022/11/13 12:10:28;;;;;;;19.67;14.47;;;13.20;66.80;;;;;;5011230;28;20678;-62
2022/11/13 12:13:25;;;;;;;20.13;15.17;;;13.30;64.80;;;;;;5030041;28;20654;-63
2022/11/13 12:15:58;;;;;;;20.10;14.43;;;13.30;66.00;;;;;;5028409;28;20191;-63
2022/11/13 12:18:27;;;;;;;19.30;15.47;;;13.30;66.20;;;;;;5014301;28;20247;-63
2022/11/13 12:21:07;;;;;;;16.07;13.23;;;13.30;65.00;;;;;;5013720;28;20219;-63
2022/11/13 12:24:09;;;;;;;18.50;14.83;;;13.40;66.30;;;;;;5014163;28;20321;-63
2022/11/13 12:26:50;;;;;;;20.53;16.20;;;13.50;66.20;;;;;;5030565;28;20650;-63
2022/11/13 12:29:19;;;;;;;19.87;15.50;;;13.50;65.90;;;;;;5009562;28;20184;-63
2022/11/13 12:32:06;;;;;;;21.63;16.63;;;13.50;66.50;;;;;;5015354;28;20642;-63
2022/11/13 12:34:43;;;;;;;19.40;14.73;;;13.60;66.70;;;;;;5030941;28;20196;-63
2022/11/13 12:37:14;;;;;;;18.60;14.10;;;13.60;67.20;;;;;;5014664;28;20218;-63
2022/11/13 12:40:10;;;;;;;20.23;15.70;;;13.80;68.30;;;;;;5040230;28;20191;-63
2022/11/13 12:42:43;;;;;;;22.07;15.30;;;13.80;67.00;;;;;;5024008;28;20250;-63
2022/11/13 12:45:27;;;;;;;18.60;14.07;;;13.90;66.40;;;;;;5029074;28;20705;-63
2022/11/13 12:47:52;;;;;;;20.70;16.87;;;13.90;66.60;;;;;;5011685;28;20251;-63
2022/11/13 12:50:23;;;;;;;18.30;14.43;;;14.00;66.40;;;;;;5012531;28;20204;-63
2022/11/13 12:53:07;;;;;;;20.83;14.80;;;14.00;66.40;;;;;;5029465;28;20249;-64
2022/11/13 12:55:36;;;;;;;20.17;14.37;;;14.10;65.30;;;;;;5014033;28;20196;-63
2022/11/13 12:58:20;;;;;;;19.90;14.83;;;14.10;65.50;;;;;;5014002;28;20191;-63
2022/11/13 13:01:09;;;;;;;19.27;14.97;;;13.90;65.30;;;;;;5006455;28;20265;-63